createdAt,value
2018-12-06T00:00:57.220Z,16.80
2018-12-06T00:03:31.525Z,17.23
2018-12-06T00:06:09.005Z,18.07
2018-12-06T00:08:43.487Z,16.90
2018-12-06T00:11:18.054Z,15.70
2018-12-06T00:16:25.050Z,18.00
2018-12-06T00:19:07.738Z,16.70
2018-12-06T00:21:42.367Z,14.77
2018-12-06T00:24:17.405Z,16.40
2018-12-06T00:26:54.569Z,17.03
2018-12-06T00:29:29.278Z,15.40
2018-12-06T00:32:04.390Z,15.40
2018-12-06T00:34:38.766Z,15.23
2018-12-06T00:37:15.805Z,14.77
2018-12-06T00:39:53.803Z,15.17
2018-12-06T00:42:29.602Z,14.37
2018-12-06T00:45:04.301Z,14.10
2018-12-06T00:47:38.633Z,16.23
2018-12-06T00:50:12.749Z,17.27
2018-12-06T00:52:47.530Z,14.83
2018-12-06T00:55:21.732Z,14.30
2018-12-06T00:57:56.373Z,16.07
2018-12-06T01:00:30.181Z,14.47
2018-12-06T01:03:04.031Z,18.47
2018-12-06T01:05:37.947Z,15.17
2018-12-06T01:08:12.985Z,14.73
2018-12-06T01:10:47.642Z,16.87
2018-12-06T01:13:22.374Z,14.03
2018-12-06T01:16:04.912Z,16.43
2018-12-06T01:18:44.505Z,17.90
2018-12-06T01:21:23.807Z,16.20
2018-12-06T01:23:58.740Z,16.10
2018-12-06T01:26:35.933Z,16.03
2018-12-06T01:29:10.639Z,16.20
2018-12-06T01:31:45.297Z,17.77
2018-12-06T01:34:24.074Z,17.13
2018-12-06T01:37:01.029Z,19.63
2018-12-06T01:39:40.588Z,15.90
2018-12-06T01:42:19.447Z,18.03
2018-12-06T01:44:56.122Z,16.10
2018-12-06T01:47:31.144Z,17.03
2018-12-06T01:50:05.580Z,18.87
2018-12-06T01:52:41.050Z,16.70
2018-12-06T01:55:15.369Z,18.63
2018-12-06T01:57:50.161Z,15.07
2018-12-06T02:00:25.229Z,17.07
2018-12-06T02:02:59.551Z,18.40
2018-12-06T02:05:33.779Z,20.60
2018-12-06T02:08:08.557Z,19.03
2018-12-06T02:10:42.864Z,19.97
2018-12-06T02:13:17.486Z,16.37
2018-12-06T02:15:51.403Z,15.83
2018-12-06T02:18:25.479Z,16.07
2018-12-06T02:20:59.487Z,15.73
2018-12-06T02:23:34.002Z,19.17
2018-12-06T02:26:07.939Z,16.13
2018-12-06T02:28:42.009Z,17.23
2018-12-06T02:31:15.957Z,15.40
2018-12-06T02:33:49.871Z,15.40
2018-12-06T02:36:23.710Z,14.57
2018-12-06T02:38:58.101Z,15.87
2018-12-06T02:41:33.762Z,15.73
2018-12-06T02:44:07.970Z,13.97
2018-12-06T02:46:42.321Z,16.67
2018-12-06T02:49:16.924Z,15.37
2018-12-06T02:51:50.910Z,16.30
2018-12-06T02:54:25.877Z,14.63
2018-12-06T02:57:00.570Z,14.83
2018-12-06T02:59:35.221Z,14.60
2018-12-06T03:02:09.367Z,13.30
2018-12-06T03:04:43.312Z,13.03
2018-12-06T03:07:17.226Z,13.60
2018-12-06T03:09:50.993Z,15.20
2018-12-06T03:12:25.254Z,15.77
2018-12-06T03:14:59.330Z,16.27
2018-12-06T03:17:33.971Z,13.90
2018-12-06T03:20:08.866Z,13.20
2018-12-06T03:22:46.375Z,16.07
2018-12-06T03:25:20.241Z,15.20
2018-12-06T03:27:54.265Z,13.43
2018-12-06T03:30:28.397Z,15.87
2018-12-06T03:33:02.507Z,15.20
2018-12-06T03:35:37.178Z,14.93
2018-12-06T03:38:11.177Z,15.23
2018-12-06T03:40:45.109Z,14.23
2018-12-06T03:43:19.339Z,14.07
2018-12-06T03:45:53.937Z,15.67
2018-12-06T03:48:27.797Z,12.33
2018-12-06T03:51:01.714Z,12.47
2018-12-06T03:53:35.639Z,15.73
2018-12-06T03:56:09.667Z,14.53
2018-12-06T03:58:43.739Z,12.93
2018-12-06T04:01:17.681Z,14.43
2018-12-06T04:03:51.738Z,13.63
2018-12-06T04:06:26.508Z,15.07
2018-12-06T04:09:01.302Z,13.77
2018-12-06T04:11:35.315Z,14.33
2018-12-06T04:14:09.259Z,11.63
2018-12-06T04:16:43.670Z,12.20
2018-12-06T04:19:17.450Z,13.17
2018-12-06T04:29:23.849Z,12.80
2018-12-06T04:31:57.747Z,13.63
2018-12-06T04:34:32.093Z,15.33
2018-12-06T04:37:06.778Z,14.93
2018-12-06T04:39:40.799Z,12.70
2018-12-06T04:42:14.902Z,14.37
2018-12-06T04:44:48.796Z,12.40
2018-12-06T04:47:23.018Z,13.07
2018-12-06T04:49:57.237Z,13.83
2018-12-06T04:52:31.292Z,15.67
2018-12-06T04:55:05.321Z,15.57
2018-12-06T04:57:39.221Z,12.87
2018-12-06T05:00:13.341Z,13.00
2018-12-06T05:02:47.533Z,12.83
2018-12-06T05:05:21.321Z,13.87
2018-12-06T05:07:55.430Z,14.17
2018-12-06T05:10:29.561Z,13.87
2018-12-06T05:13:03.507Z,15.60
2018-12-06T05:15:37.602Z,14.03
2018-12-06T05:18:11.497Z,13.67
2018-12-06T05:20:45.653Z,14.60
2018-12-06T05:23:19.755Z,12.93
2018-12-06T05:25:53.736Z,12.07
2018-12-06T05:30:58.670Z,12.93
2018-12-06T05:33:32.963Z,14.10
2018-12-06T05:36:07.422Z,13.10
2018-12-06T05:38:41.823Z,13.13
2018-12-06T05:41:16.826Z,13.53
2018-12-06T05:43:51.065Z,14.47
2018-12-06T05:46:24.919Z,13.30
2018-12-06T05:49:00.999Z,13.67
2018-12-06T05:51:36.041Z,11.50
2018-12-06T05:54:11.140Z,12.87
2018-12-06T05:56:45.641Z,12.33
2018-12-06T05:59:19.466Z,13.67
2018-12-06T06:01:53.700Z,13.93
2018-12-06T06:04:28.631Z,15.60
2018-12-06T06:07:02.903Z,14.40
2018-12-06T06:09:37.766Z,15.80
2018-12-06T06:12:11.904Z,16.03
2018-12-06T06:14:47.022Z,14.07
2018-12-06T06:17:21.530Z,17.47
2018-12-06T06:19:55.389Z,15.30
2018-12-06T06:22:29.770Z,13.67
2018-12-06T06:25:04.659Z,14.13
2018-12-06T06:27:39.391Z,13.97
2018-12-06T06:32:44.945Z,14.67
2018-12-06T06:35:18.985Z,13.20
2018-12-06T06:37:52.904Z,13.80
2018-12-06T06:40:27.027Z,11.60
2018-12-06T06:43:01.032Z,14.97
2018-12-06T06:45:34.869Z,14.50
2018-12-06T06:48:09.635Z,13.60
2018-12-06T06:50:43.711Z,12.43
2018-12-06T06:53:18.444Z,13.63
2018-12-06T06:55:52.239Z,11.67
2018-12-06T06:58:26.215Z,13.43
2018-12-06T07:01:00.156Z,14.67
2018-12-06T07:03:34.126Z,13.00
2018-12-06T07:06:08.231Z,11.90
2018-12-06T07:08:42.262Z,13.43
2018-12-06T07:11:16.401Z,14.13
2018-12-06T07:13:51.133Z,15.53
2018-12-06T07:16:25.411Z,12.10
2018-12-06T07:18:59.634Z,13.33
2018-12-06T07:21:33.655Z,14.10
2018-12-06T07:24:07.904Z,13.47
2018-12-06T07:26:40.346Z,14.47
2018-12-06T07:29:14.694Z,13.53
2018-12-06T07:34:20.336Z,10.90
2018-12-06T07:36:54.399Z,12.73
2018-12-06T07:39:28.445Z,13.03
2018-12-06T07:42:03.162Z,12.87
2018-12-06T07:44:37.443Z,11.03
2018-12-06T07:47:11.974Z,11.70
2018-12-06T07:49:46.622Z,11.03
2018-12-06T07:52:20.740Z,9.83
2018-12-06T07:54:54.638Z,11.67
2018-12-06T07:57:28.949Z,12.63
2018-12-06T08:00:02.977Z,13.40
2018-12-06T08:02:36.914Z,10.67
2018-12-06T08:05:11.957Z,13.17
2018-12-06T08:07:46.830Z,11.53
2018-12-06T08:10:21.447Z,14.47
2018-12-06T08:12:55.581Z,12.60
2018-12-06T08:15:29.619Z,8.17
2018-12-06T08:18:03.681Z,8.60
2018-12-06T08:20:37.789Z,7.20
2018-12-06T08:23:11.852Z,6.73
2018-12-06T08:25:45.809Z,5.80
2018-12-06T08:28:19.892Z,7.13
2018-12-06T08:30:53.760Z,6.43
2018-12-06T08:33:27.641Z,7.07
2018-12-06T08:36:01.559Z,8.73
2018-12-06T08:38:35.565Z,5.63
2018-12-06T08:41:09.394Z,6.22
2018-12-06T08:43:43.407Z,5.00
2018-12-06T08:46:17.236Z,5.87
2018-12-06T08:48:51.318Z,6.60
2018-12-06T08:51:25.346Z,6.30
2018-12-06T08:53:59.495Z,5.60
2018-12-06T08:56:34.315Z,5.10
2018-12-06T08:59:08.966Z,4.80
2018-12-06T09:01:42.918Z,4.50
2018-12-06T09:04:16.984Z,6.67
2018-12-06T09:06:50.922Z,5.07
2018-12-06T09:09:25.090Z,5.20
2018-12-06T09:11:59.027Z,4.33
2018-12-06T09:14:33.811Z,4.23
2018-12-06T09:17:07.688Z,4.30
2018-12-06T09:19:41.561Z,4.10
2018-12-06T09:22:15.502Z,4.87
2018-12-06T09:24:49.464Z,6.57
2018-12-06T09:27:24.205Z,4.97
2018-12-06T09:29:58.287Z,3.50
2018-12-06T09:32:32.483Z,3.30
2018-12-06T09:37:38.164Z,4.93
2018-12-06T09:40:12.196Z,4.17
2018-12-06T09:42:46.256Z,3.63
2018-12-06T09:45:20.409Z,3.20
2018-12-06T09:47:54.870Z,3.37
2018-12-06T09:50:29.265Z,3.63
2018-12-06T09:53:03.187Z,4.87
2018-12-06T09:55:37.055Z,3.77
2018-12-06T09:58:11.190Z,4.27
2018-12-06T10:00:45.911Z,4.67
2018-12-06T10:03:19.944Z,3.30
2018-12-06T10:05:54.688Z,3.53
2018-12-06T10:08:28.534Z,3.50
2018-12-06T10:11:02.650Z,3.70
2018-12-06T10:13:36.923Z,5.23
2018-12-06T10:16:10.819Z,3.60
2018-12-06T10:18:45.040Z,3.67
2018-12-06T10:21:19.731Z,2.80
2018-12-06T10:23:54.369Z,3.20
2018-12-06T10:26:29.062Z,2.47
2018-12-06T10:29:02.948Z,2.57
2018-12-06T10:31:37.133Z,3.10
2018-12-06T10:34:12.010Z,3.43
2018-12-06T10:39:16.563Z,4.23
2018-12-06T10:41:50.512Z,3.90
2018-12-06T10:44:29.630Z,3.17
2018-12-06T10:47:03.662Z,8.10
2018-12-06T10:49:37.713Z,6.47
2018-12-06T10:52:11.582Z,3.83
2018-12-06T10:54:46.295Z,4.50
2018-12-06T10:57:20.491Z,3.60
2018-12-06T10:59:55.208Z,2.27
2018-12-06T11:02:35.208Z,4.03
2018-12-06T11:05:10.135Z,3.03
2018-12-06T11:07:43.991Z,3.30
2018-12-06T11:10:18.021Z,3.53
2018-12-06T11:12:51.922Z,29.17
2018-12-06T11:15:25.916Z,4.90
2018-12-06T11:18:00.016Z,6.00
2018-12-06T11:20:34.788Z,5.87
2018-12-06T11:23:09.558Z,4.87
2018-12-06T11:25:44.283Z,4.20
2018-12-06T11:28:18.247Z,2.60
2018-12-06T11:30:52.976Z,3.90
2018-12-06T11:33:27.711Z,3.95
2018-12-06T11:36:01.643Z,3.67
2018-12-06T11:38:35.509Z,4.50
2018-12-06T11:41:10.075Z,5.57
2018-12-06T11:43:44.193Z,5.23
2018-12-06T11:46:18.866Z,3.87
2018-12-06T11:48:52.977Z,5.77
2018-12-06T11:51:27.014Z,3.50
2018-12-06T11:54:01.089Z,2.40
2018-12-06T11:56:35.719Z,3.43
2018-12-06T11:59:09.841Z,3.97
2018-12-06T12:01:44.669Z,4.57
2018-12-06T12:04:19.332Z,4.53
2018-12-06T12:06:53.385Z,2.43
2018-12-06T12:09:27.900Z,4.10
2018-12-06T12:12:01.935Z,3.13
2018-12-06T12:14:35.972Z,5.10
2018-12-06T12:17:09.773Z,6.37
2018-12-06T12:19:43.697Z,4.57
2018-12-06T12:22:17.679Z,4.23
2018-12-06T12:24:51.611Z,5.30
2018-12-06T12:27:24.074Z,2.37
2018-12-06T12:29:58.535Z,3.63
2018-12-06T12:32:33.023Z,5.00
2018-12-06T12:35:07.803Z,8.73
2018-12-06T12:37:41.894Z,3.40
2018-12-06T12:42:46.851Z,5.00
2018-12-06T12:45:21.309Z,4.87
2018-12-06T12:47:55.414Z,4.17
2018-12-06T12:50:29.682Z,3.23
2018-12-06T12:53:04.609Z,4.17
2018-12-06T12:55:39.114Z,3.70
2018-12-06T12:58:13.295Z,3.93
2018-12-06T13:00:48.039Z,4.20
2018-12-06T13:03:22.245Z,6.20
2018-12-06T13:05:56.062Z,5.90
2018-12-06T13:08:30.933Z,4.77
2018-12-06T13:11:04.868Z,4.47
2018-12-06T13:13:39.578Z,6.30
2018-12-06T13:16:13.622Z,6.27
2018-12-06T13:18:47.815Z,3.97
2018-12-06T13:21:22.584Z,3.40
2018-12-06T13:23:56.697Z,5.33
2018-12-06T13:26:31.594Z,5.70
2018-12-06T13:29:06.396Z,7.50
2018-12-06T13:31:40.524Z,5.90
2018-12-06T13:34:15.251Z,5.77
2018-12-06T13:36:50.823Z,4.70
2018-12-06T13:39:25.679Z,7.60
2018-12-06T13:44:29.974Z,5.67
2018-12-06T13:47:05.082Z,8.77
2018-12-06T13:49:41.853Z,10.23
2018-12-06T13:52:16.799Z,7.93
2018-12-06T13:54:52.560Z,7.50
2018-12-06T13:57:27.308Z,5.33
2018-12-06T14:00:02.156Z,5.40
2018-12-06T14:02:36.809Z,5.63
2018-12-06T14:05:12.133Z,6.50
2018-12-06T14:07:46.635Z,6.23
2018-12-06T14:10:21.552Z,8.00
2018-12-06T14:12:56.297Z,5.63
2018-12-06T14:15:31.233Z,5.67
2018-12-06T14:18:06.108Z,5.10
2018-12-06T14:20:40.995Z,3.40
2018-12-06T14:23:16.073Z,6.00
2018-12-06T14:25:50.788Z,7.27
2018-12-06T14:28:26.106Z,8.17
2018-12-06T14:31:00.847Z,6.20
2018-12-06T14:33:35.675Z,7.53
2018-12-06T14:36:10.611Z,3.53
2018-12-06T14:38:45.045Z,6.47
2018-12-06T14:41:19.904Z,4.80
2018-12-06T14:43:54.848Z,5.67
2018-12-06T14:46:29.371Z,6.03
2018-12-06T14:49:04.585Z,10.47
2018-12-06T14:51:38.837Z,6.17
2018-12-06T14:54:13.058Z,3.70
2018-12-06T14:56:48.089Z,5.63
2018-12-06T14:59:23.108Z,4.07
2018-12-06T15:01:57.654Z,7.03
2018-12-06T15:04:32.498Z,5.00
2018-12-06T15:07:07.300Z,5.47
2018-12-06T15:09:42.262Z,4.80
2018-12-06T15:12:17.183Z,4.15
2018-12-06T15:14:51.984Z,5.30
2018-12-06T15:17:26.792Z,4.93
2018-12-06T15:20:01.162Z,4.97
2018-12-06T15:22:35.702Z,7.53
2018-12-06T15:25:10.085Z,5.50
2018-12-06T15:27:44.755Z,7.47
2018-12-06T15:30:19.726Z,7.77
2018-12-06T15:32:54.661Z,6.23
2018-12-06T15:35:30.062Z,3.60
2018-12-06T15:38:04.716Z,4.80
2018-12-06T15:40:41.304Z,3.53
2018-12-06T15:43:20.290Z,3.37
2018-12-06T15:45:55.657Z,5.67
2018-12-06T15:48:32.623Z,5.17
2018-12-06T15:51:06.950Z,6.50
2018-12-06T15:53:42.403Z,4.83
2018-12-06T15:56:16.331Z,6.23
2018-12-06T15:58:51.038Z,5.13
2018-12-06T16:01:25.866Z,4.50
2018-12-06T16:04:00.583Z,8.23
2018-12-06T16:06:34.781Z,5.63
2018-12-06T16:09:12.937Z,4.73
2018-12-06T16:11:48.547Z,4.17
2018-12-06T16:14:23.669Z,6.90
2018-12-06T16:17:06.908Z,5.70
2018-12-06T16:19:43.470Z,5.27
2018-12-06T16:22:27.003Z,7.13
2018-12-06T16:25:01.328Z,12.13
2018-12-06T16:27:38.245Z,6.27
2018-12-06T16:30:13.915Z,7.27
2018-12-06T16:32:48.157Z,13.40
2018-12-06T16:35:24.881Z,55.43
2018-12-06T16:37:58.926Z,30.20
2018-12-06T16:40:35.034Z,14.80
2018-12-06T16:43:09.483Z,22.10
2018-12-06T16:45:46.068Z,23.80
2018-12-06T16:48:23.656Z,43.57
2018-12-06T16:50:58.059Z,31.07
2018-12-06T16:53:36.611Z,12.90
2018-12-06T16:56:12.553Z,17.87
2018-12-06T16:58:47.986Z,6.10
2018-12-06T17:01:22.303Z,9.67
2018-12-06T17:04:04.215Z,12.47
2018-12-06T17:06:41.890Z,21.77
2018-12-06T17:09:16.122Z,11.03
2018-12-06T17:11:53.578Z,11.13
2018-12-06T17:14:29.534Z,12.27
2018-12-06T17:17:03.763Z,10.03
2018-12-06T17:19:38.336Z,8.20
2018-12-06T17:22:12.321Z,18.50
2018-12-06T17:24:46.975Z,11.73
2018-12-06T17:27:20.807Z,9.13
2018-12-06T17:29:54.981Z,15.20
2018-12-06T17:32:29.949Z,5.73
2018-12-06T17:35:04.805Z,8.17
2018-12-06T17:37:39.516Z,5.70
2018-12-06T17:40:46.551Z,4.60
2018-12-06T17:43:20.457Z,5.78
2018-12-06T17:45:54.538Z,6.23
2018-12-06T17:48:28.589Z,7.30
2018-12-06T17:51:02.732Z,4.13
2018-12-06T17:53:37.390Z,6.93
2018-12-06T17:56:11.448Z,4.83
2018-12-06T17:58:46.223Z,6.80
2018-12-06T18:01:20.972Z,8.13
2018-12-06T18:03:55.066Z,5.13
2018-12-06T18:06:29.388Z,6.83
2018-12-06T18:09:05.324Z,6.43
2018-12-06T18:11:39.905Z,7.50
2018-12-06T18:14:13.820Z,6.47
2018-12-06T18:16:47.651Z,11.53
2018-12-06T18:19:21.878Z,9.37
2018-12-06T18:21:55.910Z,6.30
2018-12-06T18:24:30.134Z,9.03
2018-12-06T18:27:04.170Z,5.67
2018-12-06T18:29:36.677Z,9.13
2018-12-06T18:32:10.950Z,9.83
2018-12-06T18:34:44.869Z,9.67
2018-12-06T18:37:19.023Z,7.97
2018-12-06T18:39:53.046Z,7.97
2018-12-06T18:42:26.937Z,5.53
2018-12-06T18:45:01.059Z,7.50
2018-12-06T18:47:35.017Z,5.90
2018-12-06T18:50:08.868Z,7.37
2018-12-06T18:52:42.674Z,7.57
2018-12-06T18:55:16.898Z,7.23
2018-12-06T18:57:51.033Z,7.60
2018-12-06T19:00:25.833Z,6.50
2018-12-06T19:02:59.968Z,4.77
2018-12-06T19:05:34.098Z,6.17
2018-12-06T19:08:08.928Z,8.50
2018-12-06T19:10:43.131Z,8.07
2018-12-06T19:13:17.122Z,6.47
2018-12-06T19:15:51.447Z,4.70
2018-12-06T19:18:25.782Z,11.13
2018-12-06T19:21:02.433Z,11.93
2018-12-06T19:23:36.579Z,9.90
2018-12-06T19:26:11.182Z,10.03
2018-12-06T19:28:45.051Z,5.93
2018-12-06T19:31:19.264Z,4.30
2018-12-06T19:33:54.180Z,3.47
2018-12-06T19:36:28.727Z,4.67
2018-12-06T19:39:06.471Z,4.00
2018-12-06T19:41:40.435Z,3.10
2018-12-06T19:44:14.794Z,3.53
2018-12-06T19:46:51.406Z,4.13
2018-12-06T19:49:25.681Z,3.30
2018-12-06T19:52:03.059Z,3.83
2018-12-06T19:54:37.935Z,2.60
2018-12-06T19:57:14.553Z,3.60
2018-12-06T19:59:48.491Z,3.20
2018-12-06T20:02:23.431Z,2.87
2018-12-06T20:04:57.521Z,2.57
2018-12-06T20:07:32.659Z,2.53
2018-12-06T20:10:10.026Z,2.77
2018-12-06T20:12:45.687Z,5.70
2018-12-06T20:15:21.929Z,5.33
2018-12-06T20:17:56.224Z,2.60
2018-12-06T20:20:32.271Z,3.20
2018-12-06T20:23:06.506Z,3.60
2018-12-06T20:25:41.580Z,3.60
2018-12-06T20:28:16.556Z,3.10
2018-12-06T20:30:51.298Z,3.20
2018-12-06T20:33:23.918Z,6.00
2018-12-06T20:35:58.195Z,7.80
2018-12-06T20:38:30.979Z,8.60
2018-12-06T20:41:05.768Z,8.27
2018-12-06T20:43:40.646Z,6.37
2018-12-06T20:46:15.400Z,4.20
2018-12-06T20:48:50.334Z,6.90
2018-12-06T20:51:24.246Z,3.77
2018-12-06T20:53:58.477Z,3.80
2018-12-06T20:56:32.391Z,3.17
2018-12-06T20:59:08.112Z,3.40
2018-12-06T21:01:42.563Z,3.00
2018-12-06T21:04:17.431Z,3.60
2018-12-06T21:06:52.624Z,3.45
2018-12-06T21:09:28.864Z,4.07
2018-12-06T21:12:06.343Z,2.97
2018-12-06T21:14:40.809Z,17.73
2018-12-06T21:17:17.610Z,17.97
2018-12-06T21:19:54.305Z,13.73
2018-12-06T21:22:30.806Z,13.90
2018-12-06T21:25:07.206Z,12.47
2018-12-06T21:27:44.453Z,17.80
2018-12-06T21:30:21.357Z,8.33
2018-12-06T21:32:56.533Z,5.13
2018-12-06T21:35:29.236Z,3.80
2018-12-06T21:38:03.350Z,4.67
2018-12-06T21:40:37.302Z,3.35
2018-12-06T21:43:12.501Z,3.70
2018-12-06T21:45:47.285Z,2.67
2018-12-06T21:48:23.399Z,4.37
2018-12-06T21:50:59.690Z,2.47
2018-12-06T21:53:35.485Z,2.70
2018-12-06T21:56:09.669Z,2.17
2018-12-06T21:58:46.942Z,2.47
2018-12-06T22:01:23.736Z,1.57
2018-12-06T22:04:00.430Z,2.13
2018-12-06T22:06:37.364Z,3.03
2018-12-06T22:09:13.717Z,2.37
2018-12-06T22:11:48.758Z,4.50
2018-12-06T22:14:23.652Z,2.70
2018-12-06T22:16:56.354Z,1.97
2018-12-06T22:19:30.716Z,1.70
2018-12-06T22:22:03.608Z,5.63
2018-12-06T22:24:37.471Z,2.50
2018-12-06T22:27:12.318Z,3.73
2018-12-06T22:29:44.895Z,2.80
2018-12-06T22:32:19.319Z,1.53
2018-12-06T22:34:53.668Z,2.20
2018-12-06T22:37:28.388Z,1.80
2018-12-06T22:40:02.638Z,3.43
2018-12-06T22:42:36.819Z,3.83
2018-12-06T22:45:16.739Z,1.60
2018-12-06T22:47:51.218Z,3.83
2018-12-06T22:50:25.881Z,1.73
2018-12-06T22:52:59.989Z,3.00
2018-12-06T22:55:34.543Z,2.93
2018-12-06T22:58:09.014Z,3.63
2018-12-06T23:00:46.018Z,1.43
2018-12-06T23:03:22.181Z,4.07
2018-12-06T23:05:56.191Z,1.80
2018-12-06T23:08:32.244Z,3.20
2018-12-06T23:11:08.568Z,3.07
2018-12-06T23:13:43.334Z,4.37
2018-12-06T23:16:18.212Z,1.73
2018-12-06T23:18:50.639Z,1.93
2018-12-06T23:21:25.251Z,2.83
2018-12-06T23:23:58.001Z,3.87
2018-12-06T23:26:34.455Z,2.70
2018-12-06T23:29:11.070Z,5.60
2018-12-06T23:31:46.964Z,2.67
2018-12-06T23:34:23.106Z,3.77
2018-12-06T23:36:59.442Z,5.17
2018-12-06T23:39:35.733Z,6.53
2018-12-06T23:42:09.870Z,1.10
2018-12-06T23:44:44.677Z,3.70
2018-12-06T23:47:18.522Z,2.07
2018-12-06T23:49:53.038Z,2.87
2018-12-06T23:52:27.184Z,2.73
2018-12-06T23:54:59.907Z,2.90
2018-12-06T23:57:34.291Z,2.03
